Flight Track Log - Related Links

Times and Time Zones

All times are in EDT time to prevent confusion due to time zone crossing. See the GJS6234 flight status page for this flight to view local times or setup timezone preferences in your user account.

Time Position Orientation Groundspeed Altitude Reporting Facility
EDT Latitude Longitude Course Direction KTS MPH feet Rate Location/Type
Fri 06:45:31 PM 43.1078 -76.1292 284° West 164 189 1,000  Level Boston Center
Fri 06:46:31 PM 43.1183 -76.1867 284° West 188 216 3,700 2,250 Climbing Boston Center
Fri 06:46:51 PM 43.1350 -76.1878 357° North 211 243 4,000 3,150 Climbing Boston Center
Fri 06:47:51 PM 43.1567 -76.0950 72° East 239 275 7,900 3,300 Climbing Boston Center
Fri 06:48:51 PM 43.0944 -76.0172 138° Southeast 223 257 10,600 2,600 Climbing Boston Center
Fri 06:49:51 PM 43.0222 -75.9308 139° Southeast 282 325 13,100 2,300 Climbing Boston Center
Fri 06:50:51 PM 42.9481 -75.8328 136° Southeast 346 398 15,200 2,150 Climbing Boston Center
Fri 06:51:51 PM 42.8614 -75.7261 138° Southeast 373 429 17,400 2,250 Climbing Boston Center
Fri 06:52:51 PM 42.7767 -75.6253 139° Southeast 402 463 19,700 1,800 Climbing Boston Center
Fri 06:53:51 PM 42.6861 -75.5133 138° Southeast 423 487 21,000 650 Climbing Boston Center
Fri 06:54:51 PM 42.5994 -75.4047 137° Southeast 429 494 21,000  Level Boston Center
Fri 06:55:51 PM 42.5064 -75.2903 138° Southeast 435 501 21,000  Level Boston Center
Fri 06:56:51 PM 42.4383 -75.1719 128° Southeast 418 481 21,000  Level Boston Center
Fri 06:57:51 PM 42.3894 -75.0375 116° Southeast 410 472 21,000  Level Boston Center
Fri 06:58:51 PM 42.3383 -74.8950 116° Southeast 405 466 21,000  Level Boston Center
Fri 06:59:51 PM 42.2933 -74.7558 114° Southeast 405 466 21,000  Level Boston Center
Fri 07:00:51 PM 42.2689 -74.6200 104° East 404 465 21,000 -150 Level Boston Center
Fri 07:01:51 PM 42.2425 -74.4761 104° East 404 465 20,700 -700 Descending Boston Center
Fri 07:02:51 PM 42.2119 -74.3153 104° East 398 458 19,600 -850 Descending Boston Center
Fri 07:03:51 PM 42.1261 -74.2147 139° Southeast 389 448 19,000 -300 Descending Boston Center
Fri 07:04:51 PM 42.0314 -74.1311 147° Southeast 384 442 19,000 -350 Level Boston Center
Fri 07:05:51 PM 41.9325 -74.0531 150° Southeast 406 467 18,300 -1,500 Descending Boston Center
Fri 07:06:51 PM 41.8289 -74.0114 163° South 406 467 16,000 -1,950 Descending Boston Center
Fri 07:07:51 PM 41.7275 -73.9644 161° South 401 461 14,400 -1,600 Descending Boston Center
Fri 07:08:51 PM 41.6258 -73.9203 162° South 394 453 12,800 -1,610 Descending Boston Center
Fri 07:09:13 PM 41.5833 -73.9000 160° South 385 443 12,200 -1,432 Descending New York TRACON
Fri 07:10:19 PM 41.4833 -73.8500 159° South 369 425 10,700 -1,300 Descending New York TRACON
Fri 07:11:13 PM 41.4000 -73.8167 163° South 323 372 9,600 -895 Descending New York TRACON
Fri 07:12:13 PM 41.3167 -73.7667 156° South 310 357 9,000 -600 Descending New York TRACON
Fri 07:13:13 PM 41.2500 -73.7167 151° Southeast 304 350 8,400 -1,048 Descending New York TRACON
Fri 07:14:19 PM 41.1667 -73.6667 156° South 298 343 6,800 -1,524 Descending New York TRACON
Fri 07:15:19 PM 41.0833 -73.6500 171° South 307 353 5,200 -1,400 Descending New York TRACON
Fri 07:16:19 PM 41.0000 -73.6333 171° South 288 331 4,000 -632 Descending New York TRACON
Fri 07:17:13 PM 40.9333 -73.6167 169° South 289 333 4,000  Level New York TRACON
Fri 07:18:19 PM 40.8500 -73.6667 204° Southwest 280 322 4,000  Level New York TRACON
Fri 07:19:19 PM 40.8000 -73.7167 217° Southwest 277 319 4,000  Level New York TRACON
Fri 07:20:19 PM 40.7833 -73.8167 258° West 264 304 4,000  Level New York TRACON
Fri 07:21:13 PM 40.7667 -73.9000 255° West 268 308 4,000  Level New York TRACON
Fri 07:22:19 PM 40.7500 -73.9833 255° West 226 260 4,000 -190 Level New York TRACON
Fri 07:23:19 PM 40.7000 -74.0333 217° Southwest 258 297 3,600 -600 Descending New York TRACON
Fri 07:24:19 PM 40.6833 -73.9667 108° East 203 234 2,800 -600 Descending New York TRACON
Fri 07:25:19 PM 40.7167 -73.9167 49° Northeast 172 198 2,400 -526 Descending New York TRACON
Fri 07:26:13 PM 40.7333 -73.8833 57° Northeast 151 174 1,800 -833 Descending New York TRACON
Fri 07:27:07 PM 40.7500 -73.8333 66° East 139 160 900 -1,000 Descending New York TRACON
Fri 07:29:00 PM 40.7649 -73.8791 79° East  Level FlightAware Approximate
Fri 07:36:00 PM 40.7667 -73.8667 79° East  Level FlightAware Approximate

Login

Don't have an account? Register now (free) for customized features, flight alerts, and more!